Aviation Digital Data Service (ADDS)

Output produced by TAFs form (0025 UTC 27 May 2017)
found at http://www.aviationweather.gov/adds/tafs/
 
METAR text: RJTO 270000Z 20016KT 9999 FEW015 BKN/// 22/17 Q1006
Conditions at: RJTO (OSHIMA AIRPORT , JP) observed 0000 UTC 27 May 2017
Temperature: 22.0°C (72°F)
Dewpoint: 17.0°C (63°F) [RH = 73%]
Pressure (altimeter): 29.70 inches Hg (1006.0 mb)
Winds: from the SSW (200 degrees) at 18 MPH (16 knots; 8.3 m/s)
Visibility: 6 or more miles (10+ km)
Ceiling: at least 12,000 feet AGL
Clouds: few clouds at 1500 feet AGL
Weather: no significant weather observed at this time